createdAt,value
2024-04-19T00:00:48.723Z,16.10
2024-04-19T00:06:26.661Z,15.80
2024-04-19T00:11:33.136Z,15.80
2024-04-19T00:16:42.259Z,14.70
2024-04-19T00:22:02.637Z,13.90
2024-04-19T00:27:16.386Z,15.80
2024-04-19T00:32:46.172Z,15.50
2024-04-19T00:37:55.878Z,15.60
2024-04-19T00:43:11.164Z,15.60
2024-04-19T00:48:27.510Z,15.40
2024-04-19T00:53:39.875Z,17.60
2024-04-19T00:59:05.689Z,16.90
2024-04-19T01:04:13.007Z,16.20
2024-04-19T01:09:22.713Z,16.60
2024-04-19T01:14:29.086Z,16.10
2024-04-19T01:19:35.585Z,16.20
2024-04-19T01:25:04.390Z,16.00
2024-04-19T01:30:13.685Z,17.30
2024-04-19T01:35:20.008Z,15.60
2024-04-19T01:40:26.480Z,19.70
2024-04-19T01:45:35.727Z,19.50
2024-04-19T01:50:44.279Z,18.40
2024-04-19T01:55:54.830Z,17.70
2024-04-19T02:01:24.486Z,17.20
2024-04-19T02:06:31.013Z,16.00
2024-04-19T02:11:40.268Z,17.50
2024-04-19T02:16:49.651Z,18.00
2024-04-19T02:22:09.085Z,17.60
2024-04-19T02:27:36.676Z,15.80
2024-04-19T02:33:03.026Z,16.90
2024-04-19T02:38:12.992Z,18.50
2024-04-19T02:43:21.793Z,18.10
2024-04-19T02:49:00.599Z,15.50
2024-04-19T02:54:11.404Z,15.20
2024-04-19T02:59:30.676Z,14.50
2024-04-19T03:04:49.611Z,13.10
2024-04-19T03:10:10.396Z,13.10
2024-04-19T03:15:20.548Z,12.70
2024-04-19T03:20:26.925Z,12.80
2024-04-19T03:25:44.461Z,13.20
2024-04-19T03:30:50.816Z,12.90
2024-04-19T03:35:57.074Z,12.90
2024-04-19T03:41:06.288Z,11.90
2024-04-19T03:46:12.672Z,13.20
2024-04-19T03:51:39.216Z,13.20
2024-04-19T03:56:59.520Z,11.80
2024-04-19T04:02:08.480Z,12.30
2024-04-19T04:07:33.139Z,12.60
2024-04-19T04:12:39.640Z,11.40
2024-04-19T04:17:51.464Z,10.70
2024-04-19T04:23:07.813Z,8.80
2024-04-19T04:28:26.876Z,8.70
2024-04-19T04:33:42.367Z,9.20
2024-04-19T04:38:49.080Z,8.80
2024-04-19T04:43:55.632Z,8.80
2024-04-19T04:49:02.157Z,9.40
2024-04-19T04:54:08.479Z,9.60
2024-04-19T04:59:14.716Z,8.90
2024-04-19T05:04:43.499Z,13.30
2024-04-19T05:09:52.760Z,10.90
2024-04-19T05:14:59.639Z,10.60
2024-04-19T05:20:07.282Z,8.40
2024-04-19T05:25:13.662Z,8.70
2024-04-19T05:30:20.266Z,8.10
2024-04-19T05:35:27.500Z,9.10
2024-04-19T05:40:37.046Z,12.40
2024-04-19T05:45:43.590Z,14.20
2024-04-19T05:50:53.536Z,9.70
2024-04-19T05:56:08.250Z,10.70
2024-04-19T06:01:14.764Z,9.60
2024-04-19T06:06:24.064Z,10.80
2024-04-19T06:11:30.394Z,9.10
2024-04-19T06:16:36.713Z,7.80
2024-04-19T06:21:43.095Z,7.20
2024-04-19T06:26:49.522Z,7.20
2024-04-19T06:31:55.836Z,6.60
2024-04-19T06:37:02.265Z,6.60
2024-04-19T06:42:08.938Z,7.10
2024-04-19T06:47:17.661Z,6.70
2024-04-19T06:52:23.996Z,6.30
2024-04-19T06:57:30.448Z,6.10
2024-04-19T07:02:37.091Z,5.90
2024-04-19T07:07:43.574Z,5.80
2024-04-19T07:12:49.892Z,5.70
2024-04-19T07:17:56.280Z,5.10
2024-04-19T07:23:02.486Z,5.80
2024-04-19T07:28:09.369Z,6.10
2024-04-19T07:33:16.125Z,6.30
2024-04-19T07:38:22.697Z,6.70
2024-04-19T07:43:28.890Z,6.00
2024-04-19T07:48:35.273Z,6.90
2024-04-19T07:53:41.933Z,7.70
2024-04-19T07:58:48.550Z,6.30
2024-04-19T08:03:54.938Z,12.30
2024-04-19T08:09:01.464Z,5.50
2024-04-19T08:14:08.667Z,5.70
2024-04-19T08:19:15.085Z,10.40
2024-04-19T08:24:21.511Z,4.30
2024-04-19T08:29:35.156Z,3.50
2024-04-19T08:34:42.838Z,4.50
2024-04-19T08:39:51.548Z,4.50
2024-04-19T08:44:58.367Z,6.40
2024-04-19T08:50:05.187Z,6.80
2024-04-19T08:55:13.786Z,7.40
2024-04-19T09:00:22.665Z,5.40
2024-04-19T09:05:29.629Z,6.00
2024-04-19T09:10:36.608Z,4.80
2024-04-19T09:15:42.965Z,6.60
2024-04-19T09:20:50.035Z,5.70
2024-04-19T09:26:00.940Z,6.50
2024-04-19T09:31:10.459Z,5.70
2024-04-19T09:36:20.834Z,5.60
2024-04-19T09:41:28.281Z,6.10
2024-04-19T09:46:37.143Z,5.50
2024-04-19T09:51:48.621Z,6.80
2024-04-19T09:56:59.000Z,7.40
2024-04-19T10:02:11.616Z,6.30
2024-04-19T10:07:21.928Z,6.70
2024-04-19T10:12:29.394Z,6.00
2024-04-19T10:17:36.467Z,6.00
2024-04-19T10:22:44.208Z,6.80
2024-04-19T10:27:51.711Z,5.00
2024-04-19T10:33:01.952Z,5.60
2024-04-19T10:38:09.172Z,5.30
2024-04-19T10:43:16.275Z,6.40
2024-04-19T10:48:24.057Z,5.70
2024-04-19T10:53:30.914Z,5.60
2024-04-19T10:58:37.709Z,4.70
2024-04-19T11:03:51.953Z,4.90
2024-04-19T11:08:59.278Z,7.40
2024-04-19T11:14:08.282Z,6.10
2024-04-19T11:33:00.026Z,6.60
2024-04-19T11:38:07.376Z,6.50
2024-04-19T11:43:21.240Z,6.40
2024-04-19T11:48:32.014Z,8.40
2024-04-19T11:53:45.236Z,6.90
2024-04-19T11:58:54.322Z,10.50
2024-04-19T12:04:01.298Z,6.50
2024-04-19T12:09:08.403Z,5.60
2024-04-19T12:15:00.558Z,3.60
2024-04-19T12:19:41.906Z,4.00
2024-04-19T12:24:49.061Z,5.20
2024-04-19T12:29:56.288Z,4.00
2024-04-19T12:35:16.364Z,4.70
2024-04-19T12:40:23.473Z,4.80
2024-04-19T12:45:32.653Z,4.80
2024-04-19T12:50:39.462Z,4.30
2024-04-19T12:55:46.195Z,3.00
2024-04-19T13:00:53.419Z,4.20
2024-04-19T13:06:02.979Z,3.90
2024-04-19T13:11:09.905Z,3.60
2024-04-19T13:16:16.901Z,3.40
2024-04-19T13:21:27.879Z,2.60
2024-04-19T13:26:35.352Z,4.50
2024-04-19T13:31:45.851Z,4.60
2024-04-19T13:36:53.229Z,3.80
2024-04-19T13:42:11.339Z,4.30
2024-04-19T13:47:18.629Z,5.10
2024-04-19T13:52:25.325Z,4.10
2024-04-19T13:57:36.647Z,4.00
2024-04-19T14:02:46.199Z,3.80
2024-04-19T14:07:52.919Z,2.90
2024-04-19T14:13:00.624Z,3.80
2024-04-19T14:18:13.024Z,3.50
2024-04-19T14:23:30.434Z,4.30
2024-04-19T14:34:01.863Z,6.80
2024-04-19T14:39:12.411Z,4.40
2024-04-19T14:44:19.193Z,4.30
2024-04-19T14:49:26.160Z,7.20
2024-04-19T14:54:42.812Z,3.90
2024-04-19T14:59:49.972Z,4.00
2024-04-19T15:04:59.926Z,3.60
2024-04-19T15:10:07.602Z,3.00
2024-04-19T15:15:23.594Z,3.60
2024-04-19T15:20:44.590Z,4.30
2024-04-19T15:25:51.300Z,8.80
2024-04-19T15:31:01.300Z,13.70
2024-04-19T15:36:08.993Z,4.60
2024-04-19T15:41:19.584Z,4.70
2024-04-19T15:46:26.482Z,4.20
2024-04-19T15:51:33.802Z,5.50
2024-04-19T15:56:54.773Z,3.80
2024-04-19T16:02:07.998Z,3.60
2024-04-19T16:07:35.365Z,4.20
2024-04-19T16:12:42.083Z,4.50
2024-04-19T16:17:52.176Z,5.90
2024-04-19T16:23:05.364Z,4.40
2024-04-19T16:28:17.026Z,6.40
2024-04-19T16:33:24.065Z,5.10
2024-04-19T16:38:39.901Z,4.10
2024-04-19T16:44:00.113Z,4.90
2024-04-19T16:49:19.178Z,6.00
2024-04-19T16:54:26.004Z,5.30
2024-04-19T16:59:32.920Z,3.90
2024-04-19T17:04:51.060Z,4.70
2024-04-19T17:09:57.932Z,4.80
2024-04-19T17:15:16.787Z,3.10
2024-04-19T17:20:33.215Z,4.70
2024-04-19T17:25:40.153Z,5.20
2024-04-19T17:30:54.801Z,5.00
2024-04-19T17:36:11.967Z,9.70
2024-04-19T17:41:26.106Z,4.80
2024-04-19T17:46:35.891Z,10.40
2024-04-19T17:51:50.661Z,6.40
2024-04-19T17:56:57.420Z,5.70
2024-04-19T18:02:07.614Z,3.70
2024-04-19T18:07:14.327Z,3.80
2024-04-19T18:12:21.215Z,4.70
2024-04-19T18:17:27.938Z,2.50
2024-04-19T18:22:37.877Z,2.80
2024-04-19T18:27:45.349Z,5.10
2024-04-19T18:32:52.465Z,4.20
2024-04-19T18:37:59.204Z,4.30
2024-04-19T18:43:07.317Z,2.30
2024-04-19T18:48:14.203Z,4.40
2024-04-19T18:53:22.259Z,9.30
2024-04-19T18:58:28.895Z,5.70
2024-04-19T19:03:35.613Z,8.80
2024-04-19T19:08:42.375Z,10.60
2024-04-19T19:13:50.190Z,4.40
2024-04-19T19:18:57.041Z,4.20
2024-04-19T19:24:03.674Z,4.40
2024-04-19T19:29:18.031Z,9.80
2024-04-19T19:34:24.807Z,4.70
2024-04-19T19:40:13.939Z,3.70
2024-04-19T19:45:27.240Z,4.90
2024-04-19T19:50:36.410Z,3.50
2024-04-19T19:55:47.912Z,4.50
2024-04-19T20:01:12.266Z,4.00
2024-04-19T20:06:28.477Z,4.30
2024-04-19T20:11:39.144Z,5.00
2024-04-19T20:16:45.882Z,4.20
2024-04-19T20:21:54.190Z,5.00
2024-04-19T20:27:00.863Z,5.30
2024-04-19T20:32:10.644Z,13.60
2024-04-19T20:37:26.743Z,6.30
2024-04-19T20:42:36.727Z,7.00
2024-04-19T20:47:44.853Z,7.60
2024-04-19T20:53:04.513Z,7.10
2024-04-19T20:58:23.772Z,6.70
2024-04-19T21:03:30.605Z,5.90
2024-04-19T21:08:50.373Z,5.90
2024-04-19T21:13:56.996Z,7.80
2024-04-19T21:19:04.436Z,7.30
2024-04-19T21:24:22.418Z,7.30
2024-04-19T21:29:49.355Z,8.30
2024-04-19T21:35:16.379Z,7.90
2024-04-19T21:40:39.553Z,8.40
2024-04-19T21:45:46.892Z,8.00
2024-04-19T21:51:14.203Z,10.70
2024-04-19T21:56:26.967Z,14.60
2024-04-19T22:01:44.551Z,13.80
2024-04-19T22:07:05.555Z,12.50
2024-04-19T22:12:31.250Z,7.60
2024-04-19T22:17:52.345Z,6.30
2024-04-19T22:23:08.978Z,6.80
2024-04-19T22:28:15.823Z,6.10
2024-04-19T22:33:42.871Z,9.60
2024-04-19T22:39:09.960Z,6.50
2024-04-19T22:44:37.188Z,5.60
2024-04-19T22:49:44.668Z,5.20
2024-04-19T22:55:11.583Z,4.90
2024-04-19T23:00:21.895Z,4.80
2024-04-19T23:05:32.118Z,6.10
2024-04-19T23:10:43.537Z,5.60
2024-04-19T23:16:01.742Z,4.80
2024-04-19T23:21:11.224Z,4.90
2024-04-19T23:26:22.369Z,4.00
2024-04-19T23:31:34.075Z,4.90
2024-04-19T23:37:01.308Z,4.50
2024-04-19T23:42:18.178Z,4.40
2024-04-19T23:47:36.505Z,4.60
2024-04-19T23:52:56.490Z,5.90
2024-04-19T23:58:23.533Z,5.10
